Skip Navigation Links Skip Navigation Links

Current Weather

Peshawar, Pakistan

For information only: do not use for flight planning or navigation.
Latest weather
Observation time Tuesday, October 19, 2021 1:00 PM PKT
Local time Tuesday, October 19, 2021 1:13 PM PKT
Flight conditions Marginal Visual Meteorological Conditions
Winds
Wind direction Northeast (50°)
Wind speed 7 mph
Visibility 3.1 mi.
Present weather haze
Sky condition
Ceiling unlimited
Temperature 88°F
Dewpoint 50°F
Altimeter 29.77 in.Hg
Derived measurements
Relative humidity 27%
Heat index 88°F
Density altitude 2540 ft.
METAR OPPS 190800Z 05006KT 5000 HZ NSC 31/10 Q1008

Settings

Location code

InnerDrive.Weather 4.0.6770.0 Release CLR 4.0.30319.42000
Copyright ©2018 Inner Drive Technology. All rights reserved. Portions Copyright ©1986-2018 David Braverman.

Find weather

Site navigation


Skip Navigation Links

Place info

Page info

PayPal - The safer, easier way to pay online!

Return home.

Copyright ©2021 Inner Drive Technology. Purveyors of fine, hand-crafted computer software. Page printed 2021-10-19T08:13:41 UTC.